Petersburg, Missouri
Current Conditions -  °F | °C
As of 2:35 PM on Thursday 29 Jan 2015 (Local Time) from KVER Reporting Station
Overcast Overcast  
Wind Chill: 33°   Ceiling: 3000
Heat Index: 42°   Visibility: 10mi
Dew Point: 29°   Wind: 20mph
Humidity: 60%   Direction: 300°WNW
Pressure: 30.3"   Gusts: 25mph
Location:  39.0587°N, 92.8414°W
Report Text: KVER 292035Z AUTO 30017G22KT 10SM OVC030 06/M02 A3030 RMK AO2 T00551018
Loading
Personal Weather Stations






























Interactive Weather Map New forecast layout! Learn more

10-Day Weather Forecast

Advertisements
Track Severe Weather on mobile